KCOU/COU METAR and TAF weather

Enter ICAO airport designator
Station Type Date Time Source
KCOU METAR 2018/09/20 18:54 UTC NOAA

KCOU 201854Z 20014G21KT 10SM FEW055 33/22 A2992 RMK AO2 SLP121 T03330217


Station Type Date Time Source
KCOU Decoded METAR 2018/09/20 18:54 UTC NOAA

COLUMBIA REGIONAL AIRPORT, MO, United States (KCOU) 38-49N 092-13W 271M
Sep 20, 2018 - 02:54 PM EDT / 2018.09.20 1854 UTC
Wind: from the SSW (200 degrees) at 16 MPH (14 KT) gusting to 24 MPH (21 KT):0
Visibility: 10 mile(s):0
Sky conditions: mostly clear
Temperature: 91.9 F (33.3 C)
Heat index: 98.4 F (36.9 C):1
Dew Point: 71.1 F (21.7 C)
Relative Humidity: 50%
Pressure (altimeter): 29.92 in. Hg (1013 hPa)
ob: KCOU 201854Z 20014G21KT 10SM FEW055 33/22 A2992 RMK AO2 SLP121 T03330217
cycle: 19

Station Type Date Time Source
KCOU TAF 2018/09/20 18:36 UTC NOAA

TAF KCOU 201735Z 2018/2118 21011KT P6SM FEW050
FM202000 20012G18KT P6SM VCSH SCT050
FM210100 19010KT P6SM SCT150
FM210900 22007KT P6SM VCSH BKN040
FM211300 28005KT P6SM BKN040


Example: see airport list